メインページ
METAR-TAF:

METAR-TAF

空港 :

Blue River, ブリティッシュコロンビア州, カナダ

緯度: 52-08N, 経度: 119-18W, 海抜: 679m

現時点の気象観測

当レポートは11時間6分前の00:00(UTC)に作成
無風
気温 -1°C
湿度 74%
気圧 1016 hPa
視程: 24.1km
高度11000ftの雲はほとんどない
高度12000ftの千切れ雲あり
高度13000ftの曇り

METAR: CYCP 220000Z 00000KT 15SM FEW110 BKN120 OVC130 M01/M05 A3000 RMK AC3AC2AC3 LAST STFD OBS/NEXT 221400Z SLP202

時間: 03:06 (11:06 UTC)


TAF: 見つかりません

4,000以上の空港の気象観測と天気予報(METAR報とTAF報)

利用可能な観測所は地図上に黄色い丸と赤い丸で示す。

丸の上にカーソルを重ねると観測所名を参照できる。

次にクリックすると気象観測と天気予報を参照できる。

マップの切り替え:黒色「×」印の緑ボタンをクリックして拡大、「-」印の緑ボタンをクリックして縮小、緑色の三角印をクリックして隣りの地図に切り替え


METAR-TAF: